Time;durP1;ratioP1;P1;durP2;ratioP2;P2;SDS_P1;SDS_P2;PMS_P1;PMS_P2;Temp;Humidity;BMP_temperature;BMP_pressure;BME280_temperature;BME280_humidity;BME280_pressure;Samples;Min_cycle;Max_cycle;Signal;HPM_P1;HPM_P2
2021/06/24 00:02:25;;;;;;;11.23;4.15;;;;;;;14.56;77.96;101906.69;5051898;28;20025;-81
2021/06/24 00:04:50;;;;;;;8.80;3.53;;;;;;;14.56;78.63;101914.81;5042760;28;20688;-75
2021/06/24 00:07:15;;;;;;;6.43;3.40;;;;;;;14.61;79.20;101923.53;5049516;28;20392;-83
2021/06/24 00:09:41;;;;;;;11.70;3.50;;;;;;;14.59;79.22;101929.97;5053534;28;20032;-83
2021/06/24 00:12:06;;;;;;;8.50;3.60;;;;;;;14.52;79.16;101914.06;5049134;28;20021;-80
2021/06/24 00:14:32;;;;;;;10.90;3.63;;;;;;;14.50;79.58;101917.81;5051451;28;20369;-84
2021/06/24 00:16:57;;;;;;;11.45;3.38;;;;;;;14.58;79.80;101915.59;5035084;28;20358;-83
2021/06/24 00:19:23;;;;;;;9.48;4.40;;;;;;;14.58;78.84;101909.31;5039797;28;20021;-78
2021/06/24 00:21:48;;;;;;;10.50;3.58;;;;;;;14.55;79.65;101894.16;5036426;28;20035;-84
2021/06/24 00:24:13;;;;;;;10.43;3.75;;;;;;;14.51;78.72;101884.41;5036850;28;20028;-83
2021/06/24 00:26:39;;;;;;;8.20;3.88;;;;;;;14.56;79.51;101895.00;5036919;28;20029;-83
2021/06/24 00:29:04;;;;;;;16.05;4.55;;;;;;;14.53;79.67;101896.03;5036047;28;20021;-84
2021/06/24 00:31:29;;;;;;;13.15;3.95;;;;;;;14.46;79.27;101900.91;5036682;28;20075;-83
2021/06/24 00:33:55;;;;;;;9.95;4.28;;;;;;;14.51;79.72;101904.22;5053108;28;20475;-83
2021/06/24 00:36:20;;;;;;;12.32;4.28;;;;;;;14.45;80.04;101900.97;5053026;28;20126;-83
2021/06/24 00:38:45;;;;;;;8.43;3.92;;;;;;;14.45;81.22;101899.16;5052967;28;20054;-84
2021/06/24 00:41:11;;;;;;;11.48;4.53;;;;;;;14.42;79.61;101893.91;5035903;28;20024;-83
2021/06/24 00:43:36;;;;;;;11.32;4.22;;;;;;;14.46;80.44;101900.03;5053114;28;20028;-80
2021/06/24 00:46:02;;;;;;;12.05;4.50;;;;;;;14.41;79.72;101903.00;5052838;28;20031;-82
2021/06/24 00:48:27;;;;;;;9.05;4.18;;;;;;;14.39;81.64;101904.91;5053382;28;20039;-83
2021/06/24 00:50:53;;;;;;;9.20;3.47;;;;;;;14.40;80.89;101903.06;5035883;28;20020;-83
2021/06/24 00:53:18;;;;;;;9.07;3.90;;;;;;;14.38;82.05;101911.25;5036258;28;20031;-83
2021/06/24 00:55:45;;;;;;;12.15;4.13;;;;;;;14.41;81.60;101926.44;5053156;28;20025;-84
2021/06/24 00:58:13;;;;;;;13.15;4.15;;;;;;;14.40;81.47;101944.50;5036431;28;20438;-83
2021/06/24 01:00:40;;;;;;;8.90;4.13;;;;;;;14.38;80.93;101932.91;5036428;28;20135;-83
2021/06/24 01:03:06;;;;;;;;;;;;;;;14.37;81.52;101928.47;5053229;28;20021;-83
2021/06/24 01:05:31;;;;;;;10.88;3.72;;;;;;;14.32;82.35;101925.16;5053003;28;19961;-83
2021/06/24 01:07:57;;;;;;;12.70;4.43;;;;;;;14.34;82.23;101933.16;5036428;28;20472;-83
2021/06/24 01:10:22;;;;;;;12.15;6.00;;;;;;;14.38;81.69;101923.91;5034549;28;20033;-83
2021/06/24 01:12:48;;;;;;;13.65;4.68;;;;;;;14.33;81.50;101935.00;5016305;28;20037;-81
2021/06/24 01:15:13;;;;;;;13.68;4.88;;;;;;;14.27;81.88;101929.91;5016372;28;20116;-82
2021/06/24 01:17:39;;;;;;;14.80;4.65;;;;;;;14.26;81.64;101928.19;5033558;28;20449;-83
2021/06/24 01:20:06;;;;;;;11.95;4.40;;;;;;;14.28;81.68;101931.69;5044870;28;20028;-84
2021/06/24 01:22:31;;;;;;;12.13;4.43;;;;;;;14.31;81.87;101926.09;5054038;28;20025;-84
2021/06/24 01:24:56;;;;;;;8.68;4.18;;;;;;;14.28;83.03;101919.03;5022762;28;20040;-78
2021/06/24 01:27:23;;;;;;;13.55;4.97;;;;;;;14.27;82.40;101925.41;5032951;28;20030;-83
2021/06/24 01:29:48;;;;;;;13.63;4.43;;;;;;;14.34;81.48;101909.69;5032906;28;20037;-79
2021/06/24 01:32:13;;;;;;;10.40;4.30;;;;;;;14.27;82.08;101905.56;5044057;28;20033;-84
2021/06/24 01:34:41;;;;;;;19.83;5.28;;;;;;;14.32;82.22;101911.63;5052702;28;20095;-83
2021/06/24 01:37:06;;;;;;;11.75;5.18;;;;;;;14.23;81.56;101912.13;5052477;28;20140;-82
2021/06/24 01:39:32;;;;;;;10.80;4.53;;;;;;;14.27;81.40;101917.28;5053332;28;20456;-83
2021/06/24 01:41:58;;;;;;;14.35;4.75;;;;;;;14.27;81.40;101916.38;5052663;28;20453;-78
2021/06/24 01:44:42;;;;;;;10.55;4.65;;;;;;;14.25;82.99;101899.38;5036194;28;20103;-83
2021/06/24 01:47:11;;;;;;;11.98;4.60;;;;;;;14.22;82.54;101891.44;5052615;28;20017;-81
2021/06/24 01:49:36;;;;;;;9.20;4.35;;;;;;;14.19;82.68;101878.13;5054579;28;20488;-82
2021/06/24 01:52:02;;;;;;;9.25;4.38;;;;;;;14.23;82.71;101891.38;5039156;28;20079;-83
2021/06/24 01:54:27;;;;;;;10.90;4.80;;;;;;;14.22;82.61;101895.03;5056643;28;20075;-83
2021/06/24 01:56:53;;;;;;;11.27;4.35;;;;;;;14.17;82.96;101896.25;5057110;28;20104;-83
2021/06/24 01:59:18;;;;;;;9.05;4.05;;;;;;;14.24;82.91;101905.75;5056257;28;20059;-83
2021/06/24 02:01:44;;;;;;;12.15;4.90;;;;;;;14.18;82.92;101888.06;5039602;28;20029;-82
2021/06/24 02:04:09;;;;;;;7.13;3.70;;;;;;;14.22;82.64;101895.03;5039635;28;20021;-83
2021/06/24 02:06:35;;;;;;;9.00;5.07;;;;;;;14.26;82.08;101890.34;5056211;28;20021;-84
2021/06/24 02:09:00;;;;;;;15.38;4.60;;;;;;;14.22;82.22;101886.03;5056302;28;20028;-84
2021/06/24 02:11:26;;;;;;;9.90;4.85;;;;;;;14.20;83.04;101882.56;5039312;28;20025;-84
2021/06/24 02:13:51;;;;;;;10.57;4.75;;;;;;;14.21;82.80;101887.03;5039608;28;20083;-82
2021/06/24 02:16:29;;;;;;;15.20;4.50;;;;;;;14.15;83.47;101879.25;5055972;28;20456;-83
2021/06/24 02:18:57;;;;;;;13.55;4.70;;;;;;;14.16;82.64;101881.00;5055268;28;20064;-83
2021/06/24 02:21:22;;;;;;;7.70;4.38;;;;;;;14.17;83.34;101874.63;5055467;28;20078;-84
2021/06/24 02:23:47;;;;;;;14.40;4.75;;;;;;;14.12;83.21;101866.78;5055827;28;20029;-83
2021/06/24 02:26:13;;;;;;;8.27;4.57;;;;;;;14.17;82.70;101867.38;5038792;28;20469;-83
2021/06/24 02:28:38;;;;;;;10.57;4.70;;;;;;;14.16;83.50;101859.38;5055817;28;20032;-83
2021/06/24 02:31:04;;;;;;;10.90;4.10;;;;;;;14.10;83.85;101850.63;5038948;28;20053;-84
2021/06/24 02:33:29;;;;;;;9.40;4.45;;;;;;;14.12;83.78;101855.97;5036306;28;20108;-84
2021/06/24 02:35:56;;;;;;;12.02;4.60;;;;;;;14.05;83.20;101846.47;5018914;28;20084;-79
2021/06/24 02:38:22;;;;;;;11.80;4.45;;;;;;;14.10;83.39;101847.06;5035761;28;20098;-83
2021/06/24 02:40:47;;;;;;;13.65;4.45;;;;;;;14.06;83.02;101843.69;5018837;28;20025;-82
2021/06/24 02:43:13;;;;;;;9.95;4.28;;;;;;;14.03;83.34;101843.81;5018903;28;20017;-83
2021/06/24 02:45:41;;;;;;;8.75;4.57;;;;;;;14.14;83.03;101840.53;5018975;28;20026;-82
2021/06/24 02:48:06;;;;;;;6.97;4.10;;;;;;;14.14;83.69;101847.78;5035527;28;20025;-83
2021/06/24 02:50:32;;;;;;;12.27;4.47;;;;;;;14.05;83.50;101855.44;5018697;28;20025;-83
2021/06/24 02:52:57;;;;;;;9.35;4.30;;;;;;;14.01;83.98;101852.97;5018797;28;20029;-82
2021/06/24 02:55:22;;;;;;;10.00;4.60;;;;;;;14.01;84.33;101856.53;5036332;28;20029;-83
2021/06/24 02:57:48;;;;;;;12.07;4.65;;;;;;;14.02;83.09;101857.44;5035099;28;20080;-84
2021/06/24 03:00:14;;;;;;;8.95;4.78;;;;;;;14.01;84.45;101859.25;5018777;28;20025;-85
2021/06/24 03:02:41;;;;;;;12.30;5.47;;;;;;;14.03;83.29;101864.56;5034644;28;20029;-84
2021/06/24 03:05:07;;;;;;;10.85;4.63;;;;;;;14.04;83.05;101867.22;5035261;28;20033;-83
2021/06/24 03:07:32;;;;;;;8.85;4.25;;;;;;;14.04;83.35;101863.59;5034934;28;20371;-84
2021/06/24 03:09:57;;;;;;;11.93;4.85;;;;;;;13.92;83.65;101857.06;5018387;28;20032;-83
2021/06/24 03:12:23;;;;;;;12.40;4.82;;;;;;;13.99;83.01;101869.25;5046184;28;20024;-84
2021/06/24 03:14:48;;;;;;;13.63;5.55;;;;;;;13.97;83.24;101854.09;5054896;28;20050;-84
2021/06/24 03:17:13;;;;;;;11.38;4.00;;;;;;;13.99;83.16;101858.47;5055630;28;20025;-84
2021/06/24 03:19:39;;;;;;;11.50;4.72;;;;;;;14.01;84.08;101853.84;5051478;28;20082;-83
2021/06/24 03:22:04;;;;;;;11.23;4.55;;;;;;;13.98;84.16;101856.72;5018127;28;20385;-84
2021/06/24 03:24:29;;;;;;;12.57;4.65;;;;;;;14.00;84.09;101851.25;5017980;28;20034;-84
2021/06/24 03:26:55;;;;;;;7.88;4.18;;;;;;;14.07;83.55;101850.81;5034417;28;20068;-83
2021/06/24 03:29:20;;;;;;;7.72;4.30;;;;;;;14.07;83.27;101849.94;5018000;28;20087;-83
2021/06/24 03:31:46;;;;;;;13.13;4.75;;;;;;;14.09;84.02;101848.91;5034943;28;20037;-84
2021/06/24 03:34:11;;;;;;;13.60;5.75;;;;;;;14.10;83.60;101845.22;5017932;28;20032;-83
2021/06/24 03:36:36;;;;;;;11.90;4.18;;;;;;;14.07;84.00;101833.72;5034279;28;20132;-84
2021/06/24 03:39:02;;;;;;;11.20;4.78;;;;;;;14.15;83.46;101834.16;5028688;28;20029;-83
2021/06/24 03:41:27;;;;;;;12.48;3.97;;;;;;;14.21;82.82;101835.66;5054067;28;20033;-83
2021/06/24 03:43:54;;;;;;;12.45;5.10;;;;;;;14.26;82.83;101841.69;5037700;28;20029;-83
2021/06/24 03:46:20;;;;;;;11.50;5.47;;;;;;;14.27;81.78;101840.69;5054506;28;20032;-83
2021/06/24 03:48:46;;;;;;;11.13;4.95;;;;;;;14.29;82.58;101844.19;5037993;28;20120;-84
2021/06/24 03:51:13;;;;;;;8.45;4.55;;;;;;;14.28;82.48;101843.31;5054236;28;20124;-84
2021/06/24 03:53:38;;;;;;;11.30;4.43;;;;;;;14.30;82.64;101838.72;5037454;28;20029;-84
2021/06/24 03:56:03;;;;;;;12.95;4.70;;;;;;;14.36;83.02;101851.00;5025381;28;20032;-84
2021/06/24 03:58:29;;;;;;;8.25;4.80;;;;;;;14.45;81.11;101857.72;5017439;28;20026;-83
2021/06/24 04:00:54;;;;;;;10.27;5.68;;;;;;;14.47;80.90;101856.66;5033897;28;20029;-84
2021/06/24 04:03:19;;;;;;;11.02;5.38;;;;;;;14.45;81.92;101861.28;5017603;28;20026;-82
2021/06/24 04:05:45;;;;;;;8.07;4.28;;;;;;;14.46;83.02;101860.34;5017361;28;20784;-83
2021/06/24 04:08:10;;;;;;;7.75;4.10;;;;;;;14.46;81.86;101854.06;5017509;28;20018;-84
2021/06/24 04:10:37;;;;;;;13.68;4.38;;;;;;;14.53;81.78;101864.44;5017409;28;20103;-84
2021/06/24 04:13:03;;;;;;;9.50;4.65;;;;;;;14.44;81.71;101872.22;5049689;28;20028;-84
2021/06/24 04:15:29;;;;;;;14.90;5.40;;;;;;;14.44;80.29;101875.78;5036220;28;20541;-83
2021/06/24 04:17:54;;;;;;;13.13;4.50;;;;;;;14.47;81.62;101872.03;5053612;28;20029;-84
2021/06/24 04:20:20;;;;;;;9.98;4.53;;;;;;;14.39;80.58;101849.94;5053770;28;20083;-83
2021/06/24 04:22:46;;;;;;;11.57;4.97;;;;;;;14.49;81.23;101862.00;5037015;28;20028;-84
2021/06/24 04:25:14;;;;;;;9.55;4.90;;;;;;;14.41;81.58;101865.16;5053085;28;20029;-84
2021/06/24 04:27:39;;;;;;;11.85;5.55;;;;;;;14.44;80.99;101864.09;5036358;28;20033;-76
2021/06/24 04:30:06;;;;;;;12.75;4.15;;;;;;;14.46;80.94;101859.47;5036138;28;20464;-76
2021/06/24 04:32:31;;;;;;;14.55;4.78;;;;;;;14.48;82.24;101852.13;5053013;28;20035;-84
2021/06/24 04:34:57;;;;;;;11.23;4.72;;;;;;;14.53;80.15;101844.66;5036355;28;20124;-76
2021/06/24 04:37:22;;;;;;;10.45;5.00;;;;;;;14.52;80.31;101846.44;5035961;28;20049;-84
2021/06/24 04:39:47;;;;;;;12.93;4.15;;;;;;;14.59;81.29;101836.19;5036154;28;20376;-77
2021/06/24 04:42:13;;;;;;;12.95;4.18;;;;;;;14.52;79.42;101840.19;5027183;28;20112;-84
2021/06/24 04:44:39;;;;;;;12.95;4.50;;;;;;;14.58;79.61;101839.88;5033058;28;20464;-76
2021/06/24 04:47:04;;;;;;;9.30;4.47;;;;;;;14.57;78.13;101826.44;5033117;28;20025;-80
2021/06/24 04:49:30;;;;;;;8.77;4.03;;;;;;;14.69;77.50;101837.41;5016129;28;20036;-84
2021/06/24 04:51:55;;;;;;;11.18;3.70;;;;;;;14.98;77.03;101833.94;5053188;28;20032;-84
2021/06/24 04:54:20;;;;;;;9.63;4.00;;;;;;;15.26;76.93;101836.72;5036009;28;20051;-76
2021/06/24 04:56:46;;;;;;;11.38;4.68;;;;;;;15.39;75.67;101847.69;5035750;28;20032;-76
2021/06/24 04:59:11;;;;;;;12.13;4.03;;;;;;;15.28;75.38;101831.22;5052723;28;20040;-77
2021/06/24 05:01:36;;;;;;;12.98;4.55;;;;;;;15.42;75.74;101841.22;5052959;28;20025;-81
2021/06/24 05:04:02;;;;;;;10.75;4.38;;;;;;;15.57;74.26;101842.94;5035756;28;20021;-76
2021/06/24 05:06:27;;;;;;;8.18;3.97;;;;;;;15.35;75.32;101847.00;5052715;28;20020;-77
2021/06/24 05:08:53;;;;;;;7.15;3.70;;;;;;;15.47;75.97;101849.91;5035702;28;20033;-76
2021/06/24 05:11:18;;;;;;;9.80;3.63;;;;;;;15.30;75.45;101843.69;5035174;28;20077;-77
2021/06/24 05:13:44;;;;;;;13.07;4.50;;;;;;;15.44;74.81;101831.16;5033954;28;20104;-84
2021/06/24 05:16:09;;;;;;;11.20;3.63;;;;;;;15.46;73.52;101845.47;5032434;28;20022;-77
2021/06/24 05:18:35;;;;;;;8.52;3.78;;;;;;;15.40;72.90;101851.25;5015791;28;20028;-76
2021/06/24 05:21:00;;;;;;;10.02;3.58;;;;;;;15.44;73.41;101839.28;5032307;28;20027;-76
2021/06/24 05:23:26;;;;;;;9.43;3.30;;;;;;;15.58;73.91;101840.16;5032341;28;20065;-76
2021/06/24 05:25:51;;;;;;;10.30;3.65;;;;;;;15.61;73.53;101840.94;5016435;28;20031;-77
2021/06/24 05:28:17;;;;;;;10.95;3.78;;;;;;;15.78;71.92;101840.78;5036562;28;20105;-76
2021/06/24 05:30:44;;;;;;;7.60;3.30;;;;;;;15.70;70.87;101834.94;5019807;28;20381;-84
2021/06/24 05:33:09;;;;;;;12.43;4.22;;;;;;;15.66;71.25;101833.38;5036194;28;20025;-76
2021/06/24 05:35:35;;;;;;;14.63;4.00;;;;;;;15.43;70.13;101830.25;5036126;28;20100;-84
2021/06/24 05:38:00;;;;;;;7.47;3.42;;;;;;;15.56;69.92;101836.66;5019553;28;20109;-76
2021/06/24 05:40:25;;;;;;;8.00;2.80;;;;;;;15.56;70.00;101825.84;5036414;28;20420;-83
2021/06/24 05:42:51;;;;;;;11.00;3.58;;;;;;;15.62;69.86;101824.59;5035987;28;20029;-76
2021/06/24 05:45:16;;;;;;;9.80;3.28;;;;;;;15.64;68.73;101833.50;5019215;28;20030;-76
2021/06/24 05:47:42;;;;;;;9.02;2.92;;;;;;;15.61;69.65;101820.13;5019501;28;20025;-83
2021/06/24 05:50:07;;;;;;;9.40;2.97;;;;;;;15.67;69.74;101811.63;5036134;28;20013;-76
2021/06/24 05:52:33;;;;;;;12.73;3.60;;;;;;;15.75;68.53;101808.47;5019529;28;20029;-77
2021/06/24 05:54:58;;;;;;;8.15;3.28;;;;;;;15.76;69.50;101802.94;5019590;28;20025;-82
2021/06/24 05:57:26;;;;;;;11.93;3.72;;;;;;;15.87;70.34;101802.25;5019394;28;20052;-84
2021/06/24 05:59:51;;;;;;;13.32;3.67;;;;;;;15.73;67.92;101794.13;5035968;28;20032;-85
2021/06/24 06:02:16;;;;;;;8.15;3.05;;;;;;;15.72;68.11;101800.53;5035923;28;20025;-80
2021/06/24 06:04:42;;;;;;;10.15;3.53;;;;;;;15.73;67.93;101797.75;5038482;28;20040;-82
2021/06/24 06:07:07;;;;;;;7.38;2.85;;;;;;;15.78;68.23;101787.47;5038944;28;20036;-82
2021/06/24 06:09:35;;;;;;;8.48;3.78;;;;;;;15.92;68.34;101797.44;5047933;28;20021;-84
2021/06/24 06:12:02;;;;;;;8.55;3.13;;;;;;;15.90;68.25;101785.81;5035736;28;20116;-84
2021/06/24 06:14:27;;;;;;;9.73;2.75;;;;;;;16.04;68.46;101801.19;5035921;28;20017;-76
2021/06/24 06:16:52;;;;;;;10.80;3.28;;;;;;;16.07;66.70;101789.28;5018757;28;20036;-80
2021/06/24 06:19:18;;;;;;;9.25;3.30;;;;;;;15.89;67.56;101796.75;5035700;28;20021;-82
2021/06/24 06:21:43;;;;;;;8.60;3.40;;;;;;;15.80;67.13;101802.75;5019104;28;20029;-83
2021/06/24 06:24:09;;;;;;;9.65;2.80;;;;;;;15.88;68.61;101789.59;5035672;28;20473;-82
2021/06/24 06:26:34;;;;;;;8.40;2.85;;;;;;;16.20;66.60;101801.94;5021169;28;20026;-83
2021/06/24 06:29:03;;;;;;;8.63;3.08;;;;;;;16.75;65.67;101796.50;5038353;28;20036;-79
2021/06/24 06:31:30;;;;;;;8.98;2.65;;;;;;;17.15;64.60;101796.50;5054833;28;20108;-76
2021/06/24 06:33:55;;;;;;;8.90;2.40;;;;;;;18.13;61.57;101788.66;5038853;28;20035;-84
2021/06/24 06:36:21;;;;;;;6.03;2.47;;;;;;;18.77;57.12;101797.41;5056332;28;20041;-75
2021/06/24 06:38:46;;;;;;;7.20;2.50;;;;;;;19.65;53.19;101801.47;5054280;28;20033;-80
2021/06/24 06:41:11;;;;;;;10.15;2.45;;;;;;;21.11;49.71;101798.44;5037331;28;20033;-77
2021/06/24 06:43:37;;;;;;;7.47;2.45;;;;;;;21.88;46.55;101801.78;5054884;28;20115;-83
2021/06/24 06:46:02;;;;;;;9.25;2.38;;;;;;;22.64;45.43;101789.31;5054961;28;20025;-81
2021/06/24 06:48:27;;;;;;;5.60;1.98;;;;;;;23.40;42.21;101787.69;5033608;28;20021;-82
2021/06/24 06:50:53;;;;;;;4.80;2.22;;;;;;;24.11;39.80;101796.25;5018801;28;20120;-83
2021/06/24 06:53:18;;;;;;;3.97;1.77;;;;;;;25.44;37.45;101796.53;5018683;28;20033;-84
2021/06/24 06:55:43;;;;;;;6.50;2.47;;;;;;;25.21;37.61;101797.06;5021276;28;20020;-84
2021/06/24 06:58:09;;;;;;;6.77;2.10;;;;;;;25.98;36.40;101788.94;5054719;28;20024;-84
2021/06/24 07:00:34;;;;;;;11.73;3.13;;;;;;;26.85;34.66;101798.66;5054947;28;20473;-82
2021/06/24 07:03:00;;;;;;;7.43;2.03;;;;;;;27.99;33.25;101794.03;5054875;28;20067;-84
2021/06/24 07:05:26;;;;;;;12.20;2.37;;;;;;;28.69;32.00;101808.88;5038457;28;20111;-75
2021/06/24 07:07:51;;;;;;;8.90;2.17;;;;;;;28.51;31.11;101795.34;5038190;28;20070;-84
2021/06/24 07:10:17;;;;;;;4.63;1.53;;;;;;;30.44;27.65;101805.88;5054739;28;20388;-78
2021/06/24 07:12:42;;;;;;;5.43;1.97;;;;;;;31.04;27.22;101797.16;5038292;28;20082;-75
2021/06/24 07:15:08;;;;;;;6.90;2.30;;;;;;;30.47;27.59;101798.03;5029112;28;20021;-77
2021/06/24 07:17:33;;;;;;;6.47;1.97;;;;;;;31.60;26.39;101798.25;5054936;28;20021;-84
2021/06/24 07:19:59;;;;;;;5.23;1.93;;;;;;;32.44;23.96;101792.47;5037932;28;20025;-83
2021/06/24 07:22:24;;;;;;;7.47;1.90;;;;;;;33.42;22.99;101796.69;5042844;28;20022;-82
2021/06/24 07:24:49;;;;;;;4.03;1.73;;;;;;;33.21;23.46;101795.00;5052480;28;20112;-77
2021/06/24 07:27:15;;;;;;;8.37;3.93;;;;;;;33.14;23.80;101797.78;5049194;28;20049;-86
2021/06/24 07:29:40;;;;;;;7.10;1.70;;;;;;;31.45;24.92;101795.59;5047215;28;20026;-80
2021/06/24 07:32:06;;;;;;;4.83;2.03;;;;;;;29.51;28.71;101792.44;5052524;28;20021;-74
2021/06/24 07:34:31;;;;;;;5.82;1.83;;;;;;;27.81;31.65;101801.66;5033658;28;20376;-77
2021/06/24 07:36:56;;;;;;;5.97;1.80;;;;;;;27.45;32.33;101788.28;5051927;28;20045;-76
2021/06/24 07:39:22;;;;;;;5.47;1.77;;;;;;;29.71;29.33;101803.00;5053599;28;20472;-83
2021/06/24 07:41:47;;;;;;;8.30;2.23;;;;;;;27.84;31.69;101791.13;5036937;28;20119;-76
2021/06/24 07:44:13;;;;;;;4.40;1.50;;;;;;;27.84;32.47;101793.91;5053393;28;20464;-77
2021/06/24 07:46:38;;;;;;;7.43;2.13;;;;;;;29.89;28.08;101794.28;5053453;28;20028;-77
2021/06/24 07:49:04;;;;;;;4.50;1.77;;;;;;;31.71;25.92;101788.50;5050128;28;20044;-77
2021/06/24 07:51:30;;;;;;;6.27;2.07;;;;;;;34.19;21.83;101769.06;5016823;28;20036;-77
2021/06/24 07:53:55;;;;;;;5.30;1.80;;;;;;;34.82;20.61;101773.88;5017229;28;20032;-76
2021/06/24 07:56:20;;;;;;;4.27;1.67;;;;;;;35.37;20.27;101774.94;5033431;28;20040;-75
2021/06/24 07:58:48;;;;;;;5.67;1.70;;;;;;;35.85;19.63;101772.50;5033217;28;20029;-82
2021/06/24 08:01:14;;;;;;;2.58;1.25;;;;;;;35.39;20.42;101767.16;5045240;28;20028;-81
2021/06/24 08:03:39;;;;;;;6.70;1.77;;;;;;;33.57;21.57;101774.19;5052887;28;20025;-82
2021/06/24 08:06:05;;;;;;;4.40;1.77;;;;;;;31.82;23.85;101762.94;5033953;28;20035;-84
2021/06/24 08:08:31;;;;;;;4.93;1.60;;;;;;;30.52;26.86;101770.59;5025979;28;20021;-77
2021/06/24 08:10:56;;;;;;;4.78;1.77;;;;;;;28.95;27.96;101762.34;5033200;28;20278;-76
2021/06/24 08:13:23;;;;;;;4.27;1.80;;;;;;;28.87;28.45;101769.84;5032784;28;20032;-80
2021/06/24 08:15:49;;;;;;;;;;;;;;;30.74;26.71;101763.13;5016936;28;20036;-81
2021/06/24 08:18:15;;;;;;;6.28;1.83;;;;;;;32.51;23.80;101756.38;5016140;28;19917;-83
2021/06/24 08:20:40;;;;;;;;;;;;;;;34.11;21.42;101761.81;5032821;28;20029;-77
2021/06/24 08:23:06;;;;;;;3.53;1.63;;;;;;;35.67;19.87;101756.56;5049316;28;20376;-82
2021/06/24 08:25:31;;;;;;;5.83;1.80;;;;;;;36.64;18.74;101754.66;5032597;28;20075;-88
2021/06/24 08:27:56;;;;;;;5.70;2.10;;;;;;;33.71;21.51;101751.66;5032904;28;20033;-77
2021/06/24 08:30:22;;;;;;;4.73;1.53;;;;;;;31.78;24.68;101762.47;5024565;28;20116;-87
2021/06/24 08:32:47;;;;;;;4.90;1.67;;;;;;;32.77;23.23;101766.69;5032556;28;20611;-77
2021/06/24 08:35:13;;;;;;;4.83;2.00;;;;;;;34.88;20.18;101743.09;5050640;28;20468;-78
2021/06/24 08:37:39;;;;;;;4.27;2.10;;;;;;;35.60;18.27;101753.81;5051981;28;20376;-77
2021/06/24 08:40:06;;;;;;;3.80;1.90;;;;;;;36.13;18.33;101743.97;5035232;28;20021;-76
2021/06/24 08:42:32;;;;;;;4.97;1.70;;;;;;;35.90;19.60;101753.06;5052411;28;20094;-87
2021/06/24 08:45:02;;;;;;;5.18;1.73;;;;;;;34.33;20.65;101738.09;5031548;28;20473;-80
2021/06/24 08:47:29;;;;;;;4.80;1.90;;;;;;;32.10;24.26;101753.66;5044032;28;20037;-77
2021/06/24 08:49:59;;;;;;;5.68;2.10;;;;;;;30.86;25.61;101746.81;5052008;28;20025;-76
2021/06/24 08:52:26;;;;;;;4.22;2.00;;;;;;;30.29;26.24;101734.72;5039808;28;20025;-78
2021/06/24 08:54:51;;;;;;;5.25;2.38;;;;;;;29.10;28.14;101747.69;5031961;28;20026;-82
2021/06/24 08:57:17;;;;;;;5.20;2.43;;;;;;;30.91;27.03;101738.75;5031812;28;20026;-79
2021/06/24 08:59:43;;;;;;;4.83;2.07;;;;;;;32.45;24.24;101741.34;5050907;28;20537;-79
2021/06/24 09:02:14;;;;;;;7.30;2.40;;;;;;;30.90;26.06;101738.97;5037877;28;20026;-76
2021/06/24 09:04:49;;;;;;;6.40;2.58;;;;;;;29.28;29.14;101739.06;5046272;28;20036;-77
2021/06/24 09:07:25;;;;;;;4.22;2.08;;;;;;;27.93;30.98;101741.41;5034399;28;20024;-78
2021/06/24 09:09:56;;;;;;;4.68;1.60;;;;;;;27.02;32.70;101743.50;5051973;28;20027;-76
2021/06/24 09:12:22;;;;;;;4.07;2.03;;;;;;;26.16;34.04;101745.63;5021504;28;20477;-77
2021/06/24 09:14:55;;;;;;;9.35;3.60;;;;;;;25.11;38.04;101741.25;5031844;28;20132;-80
2021/06/24 09:17:38;;;;;;;6.30;2.75;;;;;;;25.98;37.54;101745.72;5032066;28;20362;-78
2021/06/24 09:20:07;;;;;;;7.05;3.17;;;;;;;26.38;35.95;101746.88;5015524;28;20099;-79
2021/06/24 09:22:32;;;;;;;7.65;2.35;;;;;;;26.09;35.47;101741.81;5034949;28;20026;-82
2021/06/24 09:24:58;;;;;;;7.60;2.60;;;;;;;27.23;33.47;101741.09;5046836;28;20809;-79
2021/06/24 09:27:29;;;;;;;6.47;2.00;;;;;;;27.40;32.87;101738.28;5035368;28;20029;-80
2021/06/24 09:30:06;;;;;;;4.40;1.90;;;;;;;26.71;34.76;101740.56;5035301;28;20380;-82
2021/06/24 09:32:43;;;;;;;7.32;2.58;;;;;;;26.13;35.95;101745.09;5053040;28;20472;-82
2021/06/24 09:35:20;;;;;;;6.53;2.58;;;;;;;25.40;36.82;101741.81;5052294;28;20029;-86
2021/06/24 09:38:16;;;;;;;5.57;2.65;;;;;;;24.63;39.01;101745.34;5052122;28;20372;-82
2021/06/24 09:41:13;;;;;;;8.18;2.60;;;;;;;23.90;40.80;101757.19;5030405;28;20527;-79
2021/06/24 09:43:41;;;;;;;7.40;2.65;;;;;;;23.65;42.04;101751.38;5031676;28;20045;-78
2021/06/24 09:46:16;;;;;;;8.38;2.70;;;;;;;27.83;33.56;101731.44;5033187;28;20075;-77
2021/06/24 09:49:01;;;;;;;5.03;2.92;;;;;;;27.78;32.70;101744.91;5039574;28;20028;-77
2021/06/24 09:51:31;;;;;;;6.55;2.22;;;;;;;26.50;34.62;101741.03;5025524;28;20083;-81
2021/06/24 09:54:06;;;;;;;5.45;2.40;;;;;;;25.51;37.59;101737.06;5035407;28;20095;-83
2021/06/24 09:56:40;;;;;;;6.28;2.50;;;;;;;25.00;39.88;101745.13;5056545;28;20456;-77
2021/06/24 09:59:07;;;;;;;5.95;2.83;;;;;;;25.10;37.03;101739.53;5020594;28;20045;-77
2021/06/24 10:01:37;;;;;;;5.78;2.58;;;;;;;24.73;39.20;101740.59;5031878;28;20451;-79
2021/06/24 10:04:22;;;;;;;6.35;2.53;;;;;;;24.83;38.57;101741.38;5031882;28;20050;-81
2021/06/24 10:06:50;;;;;;;6.93;2.88;;;;;;;24.63;39.04;101742.59;5044438;28;20456;-82
2021/06/24 10:09:15;;;;;;;4.35;2.28;;;;;;;23.97;41.05;101744.59;5054831;28;20021;-82
2021/06/24 10:11:41;;;;;;;13.43;3.33;;;;;;;23.54;42.53;101746.06;5061538;28;20518;-80
2021/06/24 10:14:07;;;;;;;7.50;2.97;;;;;;;23.06;44.43;101747.06;5033424;28;20550;-77
2021/06/24 10:16:33;;;;;;;6.40;3.38;;;;;;;22.74;44.96;101742.72;5034942;28;20108;-85
2021/06/24 10:18:59;;;;;;;8.68;2.88;;;;;;;22.53;46.50;101744.75;5037991;28;20025;-89
2021/06/24 10:21:26;;;;;;;5.30;2.73;;;;;;;22.60;46.10;101733.06;5038123;28;20026;-78
2021/06/24 10:24:07;;;;;;;8.55;3.80;;;;;;;23.79;42.84;101736.31;5054525;28;20017;-77
2021/06/24 10:26:33;;;;;;;5.13;3.17;;;;;;;24.59;39.54;101733.78;5055930;28;20106;-75
2021/06/24 10:29:10;;;;;;;6.47;3.03;;;;;;;25.29;40.00;101742.09;5037840;28;20021;-79
2021/06/24 10:31:38;;;;;;;6.28;3.05;;;;;;;25.79;35.82;101724.81;5037632;28;20029;-79
2021/06/24 10:34:04;;;;;;;7.97;3.47;;;;;;;25.65;37.06;101716.34;5054461;28;20028;-76
2021/06/24 10:36:31;;;;;;;7.60;3.57;;;;;;;25.89;36.85;101721.09;5054367;28;20404;-80
2021/06/24 10:38:58;;;;;;;6.10;3.17;;;;;;;25.46;37.21;101726.56;5054049;28;20036;-78
2021/06/24 10:41:23;;;;;;;5.55;2.78;;;;;;;25.47;38.81;101722.78;5037997;28;20064;-79
2021/06/24 10:43:50;;;;;;;6.30;2.40;;;;;;;25.38;38.84;101716.34;5037776;28;20064;-80
2021/06/24 10:46:25;;;;;;;5.80;2.47;;;;;;;25.39;37.63;101718.09;5054053;28;20115;-79
2021/06/24 10:48:51;;;;;;;8.00;2.78;;;;;;;25.83;36.47;101714.34;5056484;28;20025;-80
2021/06/24 10:51:17;;;;;;;7.67;3.23;;;;;;;26.05;36.05;101712.88;5074358;28;20024;-79
2021/06/24 10:53:49;;;;;;;5.78;2.65;;;;;;;26.29;35.74;101713.97;5074381;28;20048;-80
2021/06/24 10:56:41;;;;;;;4.35;2.17;;;;;;;26.71;34.39;101707.50;5057245;28;20499;-79
2021/06/24 10:59:23;;;;;;;7.70;2.30;;;;;;;29.06;29.75;101707.63;5033996;28;20116;-81
2021/06/24 11:01:48;;;;;;;4.25;2.20;;;;;;;31.20;26.39;101695.22;5050605;28;20025;-78
2021/06/24 11:04:43;;;;;;;5.33;2.07;;;;;;;31.15;26.99;101695.00;5017277;28;20370;-76
2021/06/24 11:07:22;;;;;;;7.22;2.70;;;;;;;31.08;26.71;101692.16;5035411;28;20041;-78
2021/06/24 11:10:19;;;;;;;4.43;2.03;;;;;;;30.85;28.50;101694.34;5036776;28;20032;-78
2021/06/24 11:13:16;;;;;;;7.28;2.13;;;;;;;33.73;23.17;101687.34;5053357;28;20029;-78
2021/06/24 11:15:46;;;;;;;6.35;2.08;;;;;;;35.57;21.60;101688.06;5021439;28;20040;-76
2021/06/24 11:18:32;;;;;;;5.80;2.17;;;;;;;39.94;15.48;101690.63;5037102;28;20037;-80
2021/06/24 11:21:00;;;;;;;5.05;1.80;;;;;;;42.26;13.33;101680.66;5054797;28;20108;-79
2021/06/24 11:23:30;;;;;;;4.78;2.30;;;;;;;40.13;14.97;101685.47;5029656;28;20029;-79